createdAt,value
2022-11-30T00:01:21.810Z,100838.25
2022-11-30T00:03:52.727Z,100833.84
2022-11-30T00:06:25.860Z,100836.50
2022-11-30T00:08:58.037Z,100838.34
2022-11-30T00:11:28.647Z,100839.22
2022-11-30T00:13:56.213Z,100834.91
2022-11-30T00:16:23.690Z,100838.44
2022-11-30T00:18:51.396Z,100830.47
2022-11-30T00:21:18.719Z,100834.03
2022-11-30T00:23:47.583Z,100834.03
2022-11-30T00:26:19.336Z,100834.91
2022-11-30T00:28:47.801Z,100829.63
2022-11-30T00:31:17.561Z,100834.88
2022-11-30T00:33:45.153Z,100825.19
2022-11-30T00:36:19.016Z,100820.78
2022-11-30T00:38:46.960Z,100821.63
2022-11-30T00:41:15.245Z,100820.75
2022-11-30T00:43:42.596Z,100816.38
2022-11-30T00:46:10.255Z,100817.19
2022-11-30T00:48:39.074Z,100816.34
2022-11-30T00:51:08.208Z,100826.84
2022-11-30T00:53:35.371Z,100823.38
2022-11-30T00:56:02.417Z,100827.75
2022-11-30T00:58:29.380Z,100831.25
2022-11-30T01:00:56.580Z,100828.56
2022-11-30T01:03:23.644Z,100832.09
2022-11-30T01:05:50.704Z,100834.72
2022-11-30T01:08:17.936Z,100829.47
2022-11-30T01:10:45.084Z,100838.19
2022-11-30T01:13:15.227Z,100839.97
2022-11-30T01:15:44.276Z,100835.53
2022-11-30T01:18:12.331Z,100849.59
2022-11-30T01:20:43.540Z,100851.38
2022-11-30T01:23:11.398Z,100849.66
2022-11-30T01:25:39.427Z,100842.59
2022-11-30T01:28:06.916Z,100846.94
2022-11-30T01:30:34.026Z,100839.84
2022-11-30T01:33:05.204Z,100841.56
2022-11-30T01:35:32.244Z,100843.41
2022-11-30T01:37:59.267Z,100845.13
2022-11-30T01:40:26.279Z,100854.75
2022-11-30T01:42:54.544Z,100844.25
2022-11-30T01:45:21.602Z,100838.06
2022-11-30T01:47:52.609Z,100839.84
2022-11-30T01:50:29.559Z,100846.03
2022-11-30T01:52:58.010Z,100845.13
2022-11-30T01:55:32.767Z,100844.25
2022-11-30T01:58:11.886Z,100842.50
2022-11-30T02:00:42.600Z,100844.25
2022-11-30T02:03:18.514Z,100842.47
2022-11-30T02:05:46.467Z,100838.06
2022-11-30T02:08:13.947Z,100837.13
2022-11-30T02:10:45.623Z,100840.59
2022-11-30T02:13:34.333Z,100837.13
2022-11-30T02:16:11.341Z,100836.13
2022-11-30T02:19:14.742Z,100842.22
2022-11-30T02:22:02.017Z,100842.28
2022-11-30T02:25:09.137Z,100838.81
2022-11-30T02:28:22.066Z,100839.59
2022-11-30T02:30:52.565Z,100845.75
2022-11-30T02:33:25.820Z,100833.50
2022-11-30T02:35:55.332Z,100838.75
2022-11-30T02:38:25.932Z,100836.97
2022-11-30T02:40:53.200Z,100839.56
2022-11-30T02:43:23.040Z,100838.72
2022-11-30T02:45:56.065Z,100840.50
2022-11-30T02:48:40.515Z,100838.72
2022-11-30T02:51:11.849Z,100838.72
2022-11-30T02:53:38.911Z,100840.44
2022-11-30T02:56:06.049Z,100845.69
2022-11-30T02:58:33.085Z,100843.91
2022-11-30T03:01:00.086Z,100833.38
2022-11-30T03:03:27.030Z,100841.28
2022-11-30T03:05:54.032Z,100835.94
2022-11-30T03:08:21.006Z,100838.63
2022-11-30T03:10:48.082Z,100847.38
2022-11-30T03:13:15.179Z,100850.03
2022-11-30T03:15:42.180Z,100842.19
2022-11-30T03:18:09.234Z,100851.81
2022-11-30T03:20:40.855Z,100849.19
2022-11-30T03:23:10.755Z,100844.81
2022-11-30T03:25:37.710Z,100846.53
2022-11-30T03:28:05.284Z,100848.28
2022-11-30T03:30:32.451Z,100855.38
2022-11-30T03:32:59.436Z,100850.03
2022-11-30T03:35:26.394Z,100843.91
2022-11-30T03:37:53.342Z,100844.81
2022-11-30T03:40:20.366Z,100854.44
2022-11-30T03:42:47.328Z,100850.81
2022-11-30T03:45:14.465Z,100854.34
2022-11-30T03:47:41.416Z,100851.66
2022-11-30T03:50:09.308Z,100848.97
2022-11-30T03:52:40.862Z,100848.13
2022-11-30T03:55:08.580Z,100856.00
2022-11-30T03:57:35.546Z,100847.25
2022-11-30T04:00:04.224Z,100852.50
2022-11-30T04:02:31.270Z,100855.19
2022-11-30T04:04:58.317Z,100853.38
2022-11-30T04:07:25.279Z,100852.50
2022-11-30T04:09:52.276Z,100855.22
2022-11-30T04:12:19.752Z,100856.06
2022-11-30T04:14:46.914Z,100861.28
2022-11-30T04:17:14.048Z,100856.06
2022-11-30T04:19:41.008Z,100857.84
2022-11-30T04:22:07.972Z,100864.84
2022-11-30T04:24:34.956Z,100853.50
2022-11-30T04:27:01.847Z,100855.22
2022-11-30T04:29:28.764Z,100853.44
2022-11-30T04:31:55.767Z,100859.53
2022-11-30T04:34:22.834Z,100859.63
2022-11-30T04:36:49.805Z,100853.50
2022-11-30T04:39:16.758Z,100861.41
2022-11-30T04:41:43.867Z,100866.63
2022-11-30T04:44:11.011Z,100864.94
2022-11-30T04:46:38.075Z,100859.69
2022-11-30T04:49:05.164Z,100854.38
2022-11-30T04:51:32.201Z,100861.47
2022-11-30T04:53:59.125Z,100857.94
2022-11-30T04:56:26.075Z,100857.06
2022-11-30T04:58:53.021Z,100862.38
2022-11-30T05:01:20.204Z,100859.72
2022-11-30T05:03:47.164Z,100867.63
2022-11-30T05:06:14.058Z,100861.53
2022-11-30T05:08:41.013Z,100876.38
2022-11-30T05:11:07.978Z,100866.81
2022-11-30T05:13:34.967Z,100865.03
2022-11-30T05:16:01.999Z,100867.72
2022-11-30T05:18:29.507Z,100870.41
2022-11-30T05:20:56.422Z,100868.59
2022-11-30T05:23:23.444Z,100866.03
2022-11-30T05:25:50.557Z,100876.50
2022-11-30T05:28:17.636Z,100881.78
2022-11-30T05:30:44.716Z,100871.28
2022-11-30T05:33:12.232Z,100868.66
2022-11-30T05:35:39.664Z,100875.72
2022-11-30T05:38:06.608Z,100873.91
2022-11-30T05:40:33.730Z,100876.63
2022-11-30T05:43:04.367Z,100882.72
2022-11-30T05:45:31.841Z,100876.63
2022-11-30T05:47:58.802Z,100888.91
2022-11-30T05:50:25.846Z,100890.66
2022-11-30T05:52:56.299Z,100894.16
2022-11-30T05:55:24.613Z,100889.75
2022-11-30T05:57:51.736Z,100896.78
2022-11-30T06:00:19.816Z,100892.47
2022-11-30T06:02:47.550Z,100891.53
2022-11-30T06:05:14.699Z,100894.16
2022-11-30T06:07:41.851Z,100886.28
2022-11-30T06:10:09.739Z,100889.75
2022-11-30T06:12:36.879Z,100890.66
2022-11-30T06:15:04.639Z,100886.28
2022-11-30T06:17:31.696Z,100888.91
2022-11-30T06:19:58.668Z,100891.53
2022-11-30T06:22:25.603Z,100892.44
2022-11-30T06:24:52.488Z,100890.69
2022-11-30T06:27:19.393Z,100900.31
2022-11-30T06:29:46.369Z,100893.31
2022-11-30T06:32:13.383Z,100890.66
2022-11-30T06:34:40.324Z,100891.53
2022-11-30T06:37:07.367Z,100894.22
2022-11-30T06:40:04.243Z,100895.13
2022-11-30T06:42:21.452Z,100895.16
2022-11-30T06:44:49.339Z,100899.47
2022-11-30T06:47:16.617Z,100899.44
2022-11-30T06:49:43.588Z,100890.69
2022-11-30T06:52:10.494Z,100894.28
2022-11-30T06:54:37.461Z,100898.63
2022-11-30T06:57:04.453Z,100903.03
2022-11-30T06:59:31.377Z,100902.16
2022-11-30T07:02:00.639Z,100898.69
2022-11-30T07:04:31.302Z,100896.94
2022-11-30T07:06:58.415Z,100903.03
2022-11-30T07:09:25.839Z,100906.63
2022-11-30T07:11:52.835Z,100911.03
2022-11-30T07:14:19.939Z,100911.13
2022-11-30T07:16:46.942Z,100908.41
2022-11-30T07:19:13.930Z,100904.88
2022-11-30T07:21:40.944Z,100911.03
2022-11-30T07:24:27.150Z,100907.56
2022-11-30T07:26:54.108Z,100905.78
2022-11-30T07:29:21.032Z,100899.69
2022-11-30T07:31:52.468Z,100904.97
2022-11-30T07:34:20.468Z,100903.25
2022-11-30T07:36:47.937Z,100904.94
2022-11-30T07:39:17.669Z,100905.81
2022-11-30T07:41:45.574Z,100909.34
2022-11-30T07:44:12.763Z,100911.06
2022-11-30T07:46:39.788Z,100912.03
2022-11-30T07:49:09.257Z,100912.91
2022-11-30T07:51:37.451Z,100907.66
2022-11-30T07:54:05.196Z,100914.69
2022-11-30T07:56:32.322Z,100922.63
2022-11-30T07:59:03.333Z,100927.09
2022-11-30T08:01:33.208Z,100922.72
2022-11-30T08:04:00.460Z,100927.09
2022-11-30T08:06:31.783Z,100932.44
2022-11-30T08:09:02.610Z,100935.09
2022-11-30T08:11:33.293Z,100934.28
2022-11-30T08:14:01.342Z,100932.56
2022-11-30T08:16:30.762Z,100931.66
2022-11-30T08:18:58.743Z,100932.66
2022-11-30T08:21:26.237Z,100932.78
2022-11-30T08:23:56.805Z,100939.78
2022-11-30T08:26:28.064Z,100930.16
2022-11-30T08:28:56.502Z,100943.31
2022-11-30T08:31:30.078Z,100940.88
2022-11-30T08:34:00.732Z,100945.34
2022-11-30T08:36:30.222Z,100946.19
2022-11-30T08:38:59.300Z,100946.28
2022-11-30T08:41:27.151Z,100951.53
2022-11-30T08:43:55.259Z,100960.38
2022-11-30T08:49:26.572Z,100971.31
2022-11-30T08:54:45.906Z,100970.34
2022-11-30T08:57:15.459Z,100978.47
2022-11-30T08:59:42.402Z,100982.94
2022-11-30T09:02:18.949Z,100977.72
2022-11-30T09:04:49.197Z,100984.75
2022-11-30T09:07:16.823Z,100984.81
2022-11-30T09:09:43.971Z,100986.59
2022-11-30T09:12:11.011Z,100992.84
2022-11-30T09:14:38.026Z,100994.63
2022-11-30T09:17:05.135Z,100989.47
2022-11-30T09:19:32.157Z,100983.91
2022-11-30T09:21:59.134Z,100984.84
2022-11-30T09:24:26.073Z,100994.78
2022-11-30T09:26:57.131Z,100996.63
2022-11-30T09:29:24.514Z,100998.25
2022-11-30T09:31:51.500Z,100995.75
2022-11-30T09:34:18.480Z,100994.81
2022-11-30T09:36:45.533Z,100995.56
2022-11-30T09:39:13.156Z,100992.25
2022-11-30T09:42:04.872Z,100997.38
2022-11-30T09:44:59.156Z,100998.34
2022-11-30T09:47:43.911Z,100994.78
2022-11-30T09:50:27.910Z,100998.44
2022-11-30T09:53:05.462Z,100998.50
2022-11-30T09:55:40.164Z,100990.47
2022-11-30T09:58:15.049Z,100985.06
2022-11-30T10:00:42.198Z,100983.16
2022-11-30T10:03:12.416Z,100997.47
2022-11-30T10:05:49.333Z,100992.28
2022-11-30T10:08:28.185Z,100994.88
2022-11-30T10:11:10.198Z,101002.09
2022-11-30T10:14:45.828Z,100992.34
2022-11-30T10:17:54.681Z,100999.63
2022-11-30T10:20:28.857Z,101009.34
2022-11-30T10:23:18.553Z,101011.13
2022-11-30T10:26:04.226Z,101011.22
2022-11-30T10:28:59.133Z,101003.94
2022-11-30T10:31:36.104Z,101002.34
2022-11-30T10:34:16.722Z,100994.34
2022-11-30T10:36:50.126Z,100986.50
2022-11-30T10:39:29.705Z,100993.88
2022-11-30T10:42:16.293Z,100987.75
2022-11-30T10:45:02.071Z,100976.25
2022-11-30T10:47:36.903Z,100979.16
2022-11-30T10:50:06.445Z,100975.41
2022-11-30T10:52:44.654Z,100966.66
2022-11-30T10:55:19.370Z,100971.97
2022-11-30T10:57:48.570Z,100963.19
2022-11-30T11:00:17.456Z,100968.81
2022-11-30T11:02:49.607Z,100973.31
2022-11-30T11:05:21.627Z,100962.69
2022-11-30T11:08:22.525Z,100976.47
2022-11-30T11:10:51.675Z,100979.06
2022-11-30T11:13:44.490Z,100973.66
2022-11-30T11:16:13.820Z,100970.81
2022-11-30T11:18:56.222Z,100978.16
2022-11-30T11:21:26.199Z,100973.78
2022-11-30T11:24:00.983Z,100963.97
2022-11-30T11:26:30.196Z,100970.34
2022-11-30T11:29:01.591Z,100971.28
2022-11-30T11:31:47.362Z,100966.03
2022-11-30T11:34:36.444Z,100962.28
2022-11-30T11:37:19.275Z,100958.91
2022-11-30T11:40:08.976Z,100970.47
2022-11-30T11:42:47.454Z,100969.66
2022-11-30T11:45:26.151Z,100957.94
2022-11-30T11:48:08.214Z,100959.78
2022-11-30T11:51:05.708Z,100964.16
2022-11-30T11:53:51.580Z,100956.28
2022-11-30T11:56:31.714Z,100969.75
2022-11-30T11:59:09.537Z,100960.91
2022-11-30T12:01:45.416Z,100959.97
2022-11-30T12:04:49.280Z,100966.47
2022-11-30T12:08:00.493Z,100960.97
2022-11-30T12:10:57.179Z,100967.22
2022-11-30T12:13:42.461Z,100976.03
2022-11-30T12:16:14.403Z,100961.13
2022-11-30T12:19:08.981Z,100986.09
2022-11-30T12:21:42.300Z,100974.75
2022-11-30T12:24:34.312Z,100979.38
2022-11-30T12:27:25.226Z,100981.41
2022-11-30T12:30:30.915Z,100985.94
2022-11-30T12:33:26.473Z,100971.88
2022-11-30T12:36:49.224Z,100968.31
2022-11-30T12:39:49.996Z,100966.66
2022-11-30T12:42:44.191Z,100973.91
2022-11-30T12:45:44.366Z,100957.84
2022-11-30T12:48:41.913Z,100963.19
2022-11-30T12:51:18.115Z,100958.78
2022-11-30T12:54:34.823Z,100957.81
2022-11-30T12:57:13.572Z,100967.88
2022-11-30T13:00:07.764Z,100958.66
2022-11-30T13:03:08.815Z,100946.31
2022-11-30T13:05:41.093Z,100954.19
2022-11-30T13:08:26.336Z,100948.81
2022-11-30T13:11:03.423Z,100948.00
2022-11-30T13:13:34.602Z,100946.09
2022-11-30T13:16:05.797Z,100938.97
2022-11-30T13:18:40.552Z,100945.13
2022-11-30T13:21:33.841Z,100938.97
2022-11-30T13:24:55.636Z,100936.47
2022-11-30T13:27:29.991Z,100937.28
2022-11-30T13:30:51.382Z,100932.88
2022-11-30T13:33:38.713Z,100931.13
2022-11-30T13:36:33.509Z,100923.22
2022-11-30T13:39:15.620Z,100919.44
2022-11-30T13:41:45.161Z,100922.19
2022-11-30T13:44:44.514Z,100921.22
2022-11-30T13:47:36.035Z,100919.44
2022-11-30T13:50:38.207Z,100926.63
2022-11-30T13:53:23.720Z,100913.22
2022-11-30T13:56:32.140Z,100914.16
2022-11-30T13:59:23.987Z,100922.06
2022-11-30T14:04:48.506Z,100916.59
2022-11-30T14:07:36.988Z,100917.47
2022-11-30T14:10:50.149Z,100921.78
2022-11-30T14:13:22.881Z,100919.88
2022-11-30T14:15:57.545Z,100917.28
2022-11-30T14:18:39.400Z,100920.72
2022-11-30T14:21:22.026Z,100924.22
2022-11-30T14:24:23.623Z,100939.22
2022-11-30T14:26:51.881Z,100925.88
2022-11-30T14:29:39.582Z,100922.19
2022-11-30T14:32:37.968Z,100925.63
2022-11-30T14:35:13.280Z,100922.06
2022-11-30T14:37:54.973Z,100927.34
2022-11-30T14:40:25.714Z,100928.28
2022-11-30T14:42:59.866Z,100927.31
2022-11-30T14:45:30.163Z,100923.78
2022-11-30T14:48:13.866Z,100916.81
2022-11-30T14:50:58.807Z,100917.63
2022-11-30T14:53:55.825Z,100914.78
2022-11-30T14:56:46.079Z,100912.19
2022-11-30T14:59:37.639Z,100903.31
2022-11-30T15:02:40.777Z,100912.13
2022-11-30T15:05:15.263Z,100916.50
2022-11-30T15:07:44.745Z,100905.72
2022-11-30T15:10:18.516Z,100902.19
2022-11-30T15:12:46.331Z,100906.56
2022-11-30T15:15:15.355Z,100908.25
2022-11-30T15:17:54.481Z,100908.22
2022-11-30T15:20:43.678Z,100913.44
2022-11-30T15:23:15.133Z,100909.88
2022-11-30T15:26:00.431Z,100911.63
2022-11-30T15:28:40.715Z,100916.03
2022-11-30T15:31:22.069Z,100915.97
2022-11-30T15:33:50.512Z,100915.94
2022-11-30T15:36:32.372Z,100914.16
2022-11-30T15:39:06.416Z,100915.94
2022-11-30T15:41:35.126Z,100914.16
2022-11-30T15:44:02.560Z,100917.53
2022-11-30T15:46:46.157Z,100913.97
2022-11-30T15:49:29.287Z,100912.19
2022-11-30T15:52:10.098Z,100919.25
2022-11-30T15:54:55.324Z,100924.41
2022-11-30T15:57:25.599Z,100916.47
2022-11-30T16:00:08.386Z,100923.50
2022-11-30T16:02:37.581Z,100916.38
2022-11-30T16:05:13.607Z,100915.50
2022-11-30T16:07:53.829Z,100925.94
2022-11-30T16:10:36.337Z,100919.78
2022-11-30T16:13:04.241Z,100919.66
2022-11-30T16:15:36.008Z,100925.84
2022-11-30T16:18:17.869Z,100926.75
2022-11-30T16:20:50.087Z,100927.59
2022-11-30T16:23:18.019Z,100930.13
2022-11-30T16:25:47.279Z,100933.66
2022-11-30T16:28:16.953Z,100928.34
2022-11-30T16:30:45.920Z,100926.56
2022-11-30T16:33:22.772Z,100928.28
2022-11-30T16:35:56.924Z,100936.19
2022-11-30T16:38:25.434Z,100933.56
2022-11-30T16:40:56.251Z,100934.53
2022-11-30T16:43:25.785Z,100937.13
2022-11-30T16:45:52.853Z,100926.47
2022-11-30T16:48:20.109Z,100930.88
2022-11-30T16:50:47.331Z,100930.84
2022-11-30T16:53:15.211Z,100932.63
2022-11-30T16:55:42.581Z,100937.84
2022-11-30T16:58:09.888Z,100934.31
2022-11-30T17:00:40.336Z,100943.84
2022-11-30T17:03:20.923Z,100946.47
2022-11-30T17:05:48.318Z,100944.69
2022-11-30T17:08:15.553Z,100957.91
2022-11-30T17:10:42.965Z,100947.28
2022-11-30T17:13:14.820Z,100947.28
2022-11-30T17:15:41.877Z,100952.53
2022-11-30T17:18:09.063Z,100956.88
2022-11-30T17:20:37.323Z,100960.34
2022-11-30T17:23:07.416Z,100946.25
2022-11-30T17:25:34.612Z,100955.88
2022-11-30T17:28:01.651Z,100954.94
2022-11-30T17:30:28.796Z,100961.19
2022-11-30T17:32:55.797Z,100958.47
2022-11-30T17:35:22.774Z,100955.78
2022-11-30T17:37:49.731Z,100962.81
2022-11-30T17:40:16.827Z,100957.53
2022-11-30T17:42:44.198Z,100953.09
2022-11-30T17:45:11.574Z,100958.38
2022-11-30T17:47:38.961Z,100958.41
2022-11-30T17:50:07.618Z,100953.84
2022-11-30T17:52:34.652Z,100953.84
2022-11-30T17:55:01.768Z,100960.91
2022-11-30T17:57:29.288Z,100961.75
2022-11-30T17:59:56.513Z,100955.50
2022-11-30T18:02:23.591Z,100959.88
2022-11-30T18:04:55.055Z,100965.97
2022-11-30T18:07:22.192Z,100958.13
2022-11-30T18:09:49.542Z,100958.09
2022-11-30T18:12:16.814Z,100966.81
2022-11-30T18:14:43.811Z,100960.66
2022-11-30T18:17:10.903Z,100963.34
2022-11-30T18:19:37.906Z,100965.06
2022-11-30T18:22:04.875Z,100979.97
2022-11-30T18:24:31.883Z,100966.81
2022-11-30T18:26:58.923Z,100979.03
2022-11-30T18:29:26.119Z,100980.81
2022-11-30T18:31:53.181Z,100979.88
2022-11-30T18:34:20.286Z,100978.03
2022-11-30T18:36:47.594Z,100991.28
2022-11-30T18:39:14.766Z,100985.13
2022-11-30T18:41:42.294Z,100988.59
2022-11-30T18:44:10.391Z,100980.72
2022-11-30T18:46:40.551Z,100979.88
2022-11-30T18:49:08.126Z,100985.06
2022-11-30T18:51:35.819Z,100982.44
2022-11-30T18:54:08.408Z,100977.97
2022-11-30T18:56:37.807Z,100982.44
2022-11-30T18:59:13.053Z,100981.50
2022-11-30T19:01:40.752Z,100990.47
2022-11-30T19:04:10.889Z,100988.59
2022-11-30T19:06:40.783Z,100975.31
2022-11-30T19:09:12.723Z,100982.31
2022-11-30T19:11:40.899Z,100980.63
2022-11-30T19:14:21.770Z,100982.31
2022-11-30T19:17:00.567Z,100984.88
2022-11-30T19:19:30.552Z,100980.50
2022-11-30T19:21:58.323Z,100979.56
2022-11-30T19:24:26.553Z,100981.34
2022-11-30T19:26:53.796Z,100981.41
2022-11-30T19:29:20.812Z,100987.59
2022-11-30T19:31:48.341Z,100991.94
2022-11-30T19:34:15.434Z,100974.06
2022-11-30T19:36:42.480Z,100980.06
2022-11-30T19:39:10.977Z,100985.38
2022-11-30T19:41:38.551Z,100985.28
2022-11-30T19:44:06.880Z,100986.16
2022-11-30T19:46:34.865Z,100991.22
2022-11-30T19:49:02.540Z,100994.91
2022-11-30T19:51:31.112Z,100995.69
2022-11-30T19:54:01.122Z,101003.53
2022-11-30T19:56:31.349Z,101001.00
2022-11-30T19:59:04.469Z,101004.47
2022-11-30T20:01:32.479Z,101005.25
2022-11-30T20:03:59.883Z,101009.50
2022-11-30T20:06:31.099Z,101006.00
2022-11-30T20:08:58.324Z,101000.69
2022-11-30T20:11:25.528Z,100997.97
2022-11-30T20:13:52.955Z,101000.59
2022-11-30T20:16:24.118Z,101002.28
2022-11-30T20:19:03.379Z,100999.69
2022-11-30T20:21:34.613Z,100995.22
2022-11-30T20:24:06.245Z,100995.16
2022-11-30T20:26:39.769Z,100991.59
2022-11-30T20:29:11.788Z,100996.84
2022-11-30T20:31:38.880Z,100999.38
2022-11-30T20:34:07.035Z,100989.75
2022-11-30T20:36:35.908Z,101001.16
2022-11-30T20:39:03.629Z,101001.00
2022-11-30T20:41:30.726Z,100995.63
2022-11-30T20:43:58.334Z,100997.28
2022-11-30T20:46:27.634Z,101002.50
2022-11-30T20:48:56.558Z,101002.41
2022-11-30T20:51:32.463Z,100997.88
2022-11-30T20:54:03.208Z,100996.13
2022-11-30T20:56:30.440Z,101001.41
2022-11-30T20:59:02.378Z,100998.66
2022-11-30T21:01:29.716Z,100992.41
2022-11-30T21:03:57.051Z,100995.09
2022-11-30T21:06:24.135Z,100994.94
2022-11-30T21:08:51.321Z,100992.31
2022-11-30T21:11:21.464Z,101001.97
2022-11-30T21:13:50.635Z,101001.91
2022-11-30T21:16:27.236Z,101013.38
2022-11-30T21:18:57.350Z,101003.66
2022-11-30T21:21:27.380Z,101001.53
2022-11-30T21:23:54.703Z,101003.16
2022-11-30T21:26:31.544Z,101002.16
2022-11-30T21:29:09.527Z,100998.53
2022-11-30T21:31:36.896Z,100999.31
2022-11-30T21:34:05.367Z,101006.41
2022-11-30T21:36:32.602Z,101012.59
2022-11-30T21:39:05.979Z,100999.31
2022-11-30T21:41:35.611Z,100997.47
2022-11-30T21:44:03.865Z,101000.75
2022-11-30T21:46:31.945Z,101009.63
2022-11-30T21:48:59.247Z,100992.66
2022-11-30T21:51:28.994Z,100985.44
2022-11-30T21:54:03.008Z,100990.72
2022-11-30T21:56:36.499Z,100991.50
2022-11-30T21:59:08.849Z,100996.88
2022-11-30T22:01:39.290Z,100991.63
2022-11-30T22:04:08.745Z,100979.78
2022-11-30T22:06:38.051Z,100980.66
2022-11-30T22:09:10.616Z,100992.13
2022-11-30T22:11:40.761Z,100991.34
2022-11-30T22:14:13.491Z,100977.81
2022-11-30T22:16:40.568Z,100990.28
2022-11-30T22:19:07.950Z,100987.53
2022-11-30T22:21:35.932Z,100987.72
2022-11-30T22:24:10.563Z,101000.88
2022-11-30T22:26:43.084Z,100978.53
2022-11-30T22:29:24.927Z,100989.22
2022-11-30T22:31:54.054Z,100987.44
2022-11-30T22:34:21.832Z,100992.00
2022-11-30T22:36:49.164Z,100995.28
2022-11-30T22:39:19.828Z,100981.13
2022-11-30T22:41:54.697Z,100984.63
2022-11-30T22:44:24.012Z,101002.44
2022-11-30T22:46:51.341Z,100976.59
2022-11-30T22:49:21.520Z,100972.19
2022-11-30T22:51:49.485Z,100980.34
2022-11-30T22:54:16.816Z,100963.97
2022-11-30T22:56:44.899Z,100964.00
2022-11-30T22:59:13.585Z,100976.34
2022-11-30T23:01:46.948Z,100965.69
2022-11-30T23:04:17.797Z,100969.16
2022-11-30T23:06:45.982Z,100971.78
2022-11-30T23:09:18.999Z,100967.25
2022-11-30T23:11:46.672Z,100971.53
2022-11-30T23:14:16.393Z,100970.41
2022-11-30T23:16:45.189Z,100962.59
2022-11-30T23:19:13.602Z,100954.31
2022-11-30T23:21:45.066Z,100958.06
2022-11-30T23:24:20.873Z,100957.91
2022-11-30T23:26:48.498Z,100948.13
2022-11-30T23:29:17.487Z,100953.38
2022-11-30T23:31:46.387Z,100960.75
2022-11-30T23:34:21.592Z,100941.78
2022-11-30T23:36:50.026Z,100957.06
2022-11-30T23:39:19.639Z,100954.44
2022-11-30T23:41:46.973Z,100952.72
2022-11-30T23:44:14.379Z,100948.13
2022-11-30T23:46:41.638Z,100954.31
2022-11-30T23:49:08.867Z,100945.28
2022-11-30T23:51:36.026Z,100938.13
2022-11-30T23:54:03.372Z,100927.47
2022-11-30T23:56:30.416Z,100927.41
2022-11-30T23:58:57.511Z,100931.81
